• Join FlightAware (Why Join?)
  • Login
  • US Flag 
01:32PM EDT


 

Airport Tracker/Info


-or-


 

Live Flight TrackerFlight Track Log ✈ N9U ✈ 28-Sep-2013 ✈ KICT - KJAX

Flight Track Log - Related Links

Times and Time Zones

All times are in EDT time to prevent confusion due to time zone crossing. See the N9U flight status page for this flight to view local times or setup timezone preferences in your user account.

Time Position Orientation Groundspeed Altitude Reporting Facility
EDT Latitude Longitude Course Direction KTS MPH feet Rate Location/Type
10:13AM 37.6722 -97.4097 33° Northeast 170 196 3,200  Level Kansas City Center
10:14AM 37.6958 -97.3600 59° Northeast 289 333 5,600 2,700 Climbing Kansas City Center
10:14AM 37.6933 -97.3456 102° East 258 297 6,000 2,940 Climbing Kansas City Center
10:15AM 37.6536 -97.2761 126° Southeast 286 329 8,600 2,460 Climbing Kansas City Center
10:16AM 37.5975 -97.1964 132° Southeast 300 345 10,900 2,280 Climbing Kansas City Center
10:17AM 37.5383 -97.1089 130° Southeast 324 373 13,300 2,340 Climbing Kansas City Center
10:18AM 37.4792 -97.0208 130° Southeast 328 377 15,800 2,280 Climbing Kansas City Center
10:19AM 37.4203 -96.9369 131° Southeast 323 372 18,000 1,860 Climbing Kansas City Center
10:20AM 37.3744 -96.8353 120° Southeast 335 386 19,700 1,740 Climbing Kansas City Center
10:21AM 37.3244 -96.7081 116° Southeast 339 390 21,600 1,620 Climbing Kansas City Center
10:22AM 37.2806 -96.6003 117° Southeast 343 395 23,100 1,440 Climbing Kansas City Center
10:23AM 37.2369 -96.4908 117° Southeast 347 399 24,600 1,380 Climbing Kansas City Center
10:24AM 37.1919 -96.3819 117° Southeast 347 399 26,000 1,320 Climbing Kansas City Center
10:26AM 37.1475 -96.2731 117° Southeast 348 400 27,400 1,380 Climbing Kansas City Center
10:27AM 37.1031 -96.1583 116° Southeast 358 412 28,900 1,380 Climbing Kansas City Center
10:28AM 37.0575 -96.0461 117° Southeast 362 417 30,300 1,260 Climbing Kansas City Center
10:29AM 37.0111 -95.9344 117° Southeast 362 417 31,500 1,020 Climbing Kansas City Center
10:30AM 36.9633 -95.8178 117° Southeast 373 429 32,500 960 Climbing Kansas City Center
10:31AM 36.9144 -95.6986 117° Southeast 382 440 33,500 960 Climbing Kansas City Center
10:32AM 36.8642 -95.5772 117° Southeast 389 448 34,500 1,020 Climbing Kansas City Center
10:33AM 36.8028 -95.4283 117° Southeast 396 456 35,700 1,140 Climbing Kansas City Center
10:34AM 36.7511 -95.3025 117° Southeast 402 463 36,900 1,140 Climbing Kansas City Center
10:35AM 36.7033 -95.1761 115° Southeast 401 461 38,100 1,140 Climbing Kansas City Center
10:36AM 36.6633 -95.0428 110° East 405 466 39,300 1,140 Climbing Kansas City Center
10:37AM 36.6217 -94.9175 112° Southeast 398 458 40,500 780 Climbing Kansas City Center
10:38AM 36.5808 -94.7900 112° Southeast 394 453 41,000 240 Climbing Kansas City Center
10:39AM 36.5372 -94.6542 112° Southeast 407 468 41,000  Level Kansas City Center
10:40AM 36.4903 -94.5108 112° Southeast 429 494 41,000  Level Kansas City Center
10:41AM 36.4428 -94.3683 112° Southeast 438 504 41,000  Level Kansas City Center
10:42AM 36.3961 -94.2253 112° Southeast 444 511 41,000  Level Kansas City Center
10:43AM 36.3486 -94.0819 112° Southeast 447 514 41,000  Level Kansas City Center
10:44AM 36.2986 -93.9397 114° Southeast 452 520 41,000  Level Kansas City Center
10:45AM 36.2431 -93.7661 112° Southeast 453 521 41,000  Level Kansas City Center
10:46AM 36.1958 -93.6231 112° Southeast 452 520 41,000  Level Kansas City Center
10:47AM 36.1469 -93.4803 113° Southeast 451 519 41,000  Level Kansas City Center
10:48AM 36.0983 -93.3386 113° Southeast 449 517 41,000  Level Kansas City Center
10:49AM 36.0497 -93.1975 113° Southeast 449 517 41,000  Level Memphis Center
10:50AM 35.9903 -93.0247 113° Southeast 451 519 41,000  Level Memphis Center
10:51AM 35.9417 -92.8806 113° Southeast 453 521 41,000  Level Memphis Center
10:52AM 35.8922 -92.7386 113° Southeast 449 517 41,000  Level Memphis Center
10:53AM 35.8425 -92.5947 113° Southeast 453 521 41,000  Level Memphis Center
10:54AM 35.7922 -92.4517 113° Southeast 453 521 41,000  Level Memphis Center
10:55AM 35.7433 -92.3125 113° Southeast 444 511 41,000  Level Memphis Center
10:56AM 35.6939 -92.1719 113° Southeast 447 514 41,000  Level Memphis Center
10:57AM 35.6458 -92.0325 113° Southeast 445 512 41,000  Level Memphis Center
10:58AM 35.5889 -91.8669 113° Southeast 442 509 41,000  Level Memphis Center
10:59AM 35.5381 -91.7297 114° Southeast 443 510 41,000  Level Memphis Center
11:00AM 35.4881 -91.5917 114° Southeast 444 511 41,000  Level Memphis Center
11:01AM 35.4386 -91.4547 114° Southeast 443 510 41,000  Level Memphis Center
11:03AM 35.3903 -91.3175 113° Southeast 440 506 41,000  Level Memphis Center
11:04AM 35.3417 -91.1803 113° Southeast 439 505 41,000  Level Memphis Center
11:05AM 35.2875 -91.0453 116° Southeast 438 504 41,000  Level Memphis Center
11:06AM 35.2286 -90.8856 114° Southeast 437 503 41,000  Level Memphis Center
11:07AM 35.1794 -90.7481 114° Southeast 436 502 41,000 420 Level Memphis Center
11:08AM 35.1300 -90.6136 114° Southeast 433 498 41,900 900 Climbing Memphis Center
11:09AM 35.0797 -90.4819 115° Southeast 424 488 42,900 480 Climbing Memphis Center
11:10AM 35.0300 -90.3517 115° Southeast 418 481 43,000  Climbing Memphis Center
11:11AM 34.9792 -90.2153 114° Southeast 434 499 43,000  Level Memphis Center
11:12AM 34.9281 -90.0786 114° Southeast 439 505 43,000  Level Memphis Center
11:13AM 34.8761 -89.9428 115° Southeast 442 509 43,000  Level Memphis Center
11:14AM 34.8211 -89.8011 115° Southeast 454 522 43,000  Level Memphis Center
11:15AM 34.7678 -89.6597 115° Southeast 459 528 43,000  Level Memphis Center
11:16AM 34.7081 -89.5044 115° Southeast 452 520 43,000  Level Memphis Center
11:17AM 34.6564 -89.3689 115° Southeast 442 509 43,000  Level Memphis Center
11:18AM 34.6042 -89.2328 115° Southeast 442 509 43,000  Level Memphis Center
11:19AM 34.5514 -89.0956 115° Southeast 444 511 43,000  Level Memphis Center
11:20AM 34.4886 -88.9364 116° Southeast 445 512 43,000  Level Memphis Center
11:21AM 34.4414 -88.8144 115° Southeast 445 512 43,000  Level Memphis Center
11:22AM 34.3881 -88.6789 115° Southeast 447 514 43,000  Level Memphis Center
11:23AM 34.3344 -88.5447 116° Southeast 446 513 43,000  Level Memphis Center
11:24AM 34.2806 -88.4094 116° Southeast 447 514 43,000  Level Memphis Center
11:25AM 34.2181 -88.2492 115° Southeast 441 507 43,000  Level Memphis Center
11:26AM 34.1639 -88.1183 117° Southeast 446 513 43,000  Level Memphis Center
11:27AM 34.1097 -87.9822 116° Southeast 447 514 43,000  Level Memphis Center
11:28AM 34.0553 -87.8461 116° Southeast 447 514 43,000  Level Memphis Center
11:29AM 33.9992 -87.7114 117° Southeast 446 513 43,000  Level Memphis Center
11:30AM 33.9356 -87.5533 116° Southeast 446 513 43,000  Level Memphis Center
11:31AM 33.8808 -87.4181 116° Southeast 445 512 43,000  Level Memphis Center
11:32AM 33.8558 -87.3658 120° Southeast 442 509 43,000  Level Atlanta Center
11:33AM 33.7881 -87.2381 123° Southeast 442 509 43,000  Level Atlanta Center
11:34AM 33.7225 -87.1108 122° Southeast 447 514 43,000  Level Atlanta Center
11:35AM 33.6567 -86.9836 122° Southeast 452 520 43,000  Level Atlanta Center
11:36AM 33.5908 -86.8592 122° Southeast 447 514 43,000  Level Atlanta Center
11:37AM 33.5228 -86.7325 123° Southeast 447 514 43,000  Level Atlanta Center
11:38AM 33.4564 -86.6083 123° Southeast 447 514 43,000  Level Atlanta Center
11:39AM 33.3900 -86.4869 123° Southeast 447 514 43,000  Level Atlanta Center
11:40AM 33.3217 -86.3508 121° Southeast 442 509 43,000  Level Atlanta Center
11:41AM 33.2531 -86.2272 124° Southeast 442 509 43,000  Level Atlanta Center
11:42AM 33.1903 -86.1067 122° Southeast 442 509 43,000  Level Atlanta Center
11:43AM 33.1236 -85.9858 123° Southeast 442 509 43,000 -360 Level Atlanta Center
11:44AM 33.0586 -85.8631 122° Southeast 448 516 42,300 -900 Descending Atlanta Center
11:45AM 32.9914 -85.7403 123° Southeast 448 516 41,300 -1,020 Descending Atlanta Center
11:46AM 32.9261 -85.6203 123° Southeast 442 509 40,300 -1,020 Descending Atlanta Center
11:47AM 32.8589 -85.4978 123° Southeast 442 509 39,300 -960 Descending Atlanta Center
11:48AM 32.7933 -85.3781 123° Southeast 442 509 38,400 -960 Descending Atlanta Center
11:49AM 32.7300 -85.2586 122° Southeast 442 509 37,400 -1,020 Descending Atlanta Center
11:50AM 32.6581 -85.1392 126° Southeast 442 509 36,400 -1,020 Descending Atlanta Center
11:51AM 32.5922 -85.0175 123° Southeast 442 509 35,400 -1,020 Descending Atlanta Center
11:52AM 32.5222 -84.8936 124° Southeast 447 514 34,400 -960 Descending Atlanta Center
11:53AM 32.4542 -84.7747 124° Southeast 447 514 33,500 -720 Descending Atlanta Center
11:54AM 32.3839 -84.6514 124° Southeast 447 514 33,000 -300 Descending Atlanta Center
11:55AM 32.3156 -84.5278 123° Southeast 447 514 33,000  Level Atlanta Center
11:56AM 32.2469 -84.4072 124° Southeast 447 514 33,000  Level Atlanta Center
11:57AM 32.1783 -84.2842 123° Southeast 447 514 33,000  Level Atlanta Center
11:58AM 32.1097 -84.1639 124° Southeast 447 514 33,000  Level Atlanta Center
11:59AM 32.0408 -84.0436 124° Southeast 447 514 33,000 -540 Level Atlanta Center
12:00PM 31.9742 -83.9214 123° Southeast 447 514 32,000 -1,500 Descending Atlanta Center
12:01PM 31.9050 -83.7992 124° Southeast 447 514 30,000 -2,040 Descending Atlanta Center
12:02PM 31.8547 -83.7169 126° Southeast 464 534 28,500 -2,040 Descending Jacksonville Center
12:03PM 31.7847 -83.5867 122° Southeast 482 555 26,500 -1,980 Descending Jacksonville Center
12:04PM 31.7122 -83.4689 126° Southeast 474 545 24,600 -1,800 Descending Jacksonville Center
12:05PM 31.6417 -83.3489 125° Southeast 460 529 23,000 -840 Descending Jacksonville Center
12:06PM 31.5753 -83.2339 124° Southeast 440 506 23,000  Level Jacksonville Center
12:07PM 31.5086 -83.1217 125° Southeast 430 495 23,000  Level Jacksonville Center
12:08PM 31.4442 -83.0094 124° Southeast 425 489 23,000 -120 Level Jacksonville Center
12:09PM 31.3772 -82.8975 125° Southeast 425 489 22,800 -900 Descending Jacksonville Center
12:10PM 31.3125 -82.7856 124° Southeast 425 489 21,300 -1,800 Descending Jacksonville Center
12:11PM 31.2456 -82.6714 124° Southeast 425 489 19,300 -1,800 Descending Jacksonville Center
12:12PM 31.1786 -82.5672 127° Southeast 415 478 17,700 -1,920 Descending Jacksonville Center
12:12PM 31.1703 -82.5528 124° Southeast 408 470 17,300 -2,100 Descending Jacksonville Center
12:12PM 31.1219 -82.4656 123° Southeast 393 452 15,900 -1,620 Descending Jacksonville Center
12:13PM 31.1156 -82.4606 146° Southeast 403 464 15,800 -1,680 Descending Jacksonville Center
12:13PM 31.0608 -82.3614 123° Southeast 389 448 14,200 -1,740 Descending Jacksonville Center
12:14PM 31.0567 -82.3567 136° Southeast 397 457 14,100 -1,920 Descending Jacksonville Center
12:14PM 30.9956 -82.2528 124° Southeast 376 433 12,300 -1,740 Descending Jacksonville Center
12:15PM 30.9958 -82.2575 274° West 386 444 12,400 -1,560 Climbing Jacksonville Center
12:16PM 30.9283 -82.1758 134° Southeast 366 421 10,600 -1,980 Descending Jacksonville Center
12:17PM 30.8697 -82.1108 136° Southeast 328 377 8,500 -2,280 Descending Jacksonville Center
12:17PM 30.8656 -82.1083 153° Southeast 274 315 8,300 -2,280 Descending Jacksonville Center
12:18PM 30.8006 -82.0775 158° South 267 307 6,400 -1,920 Descending Jacksonville Center
12:18PM 30.8006 -82.0750 90° East 292 336 6,500 -1,980 Climbing Jacksonville Center
12:19PM 30.7292 -82.0394 157° South 274 315 4,400 -2,040 Descending Jacksonville Center
12:19PM 30.7292 -82.0419 270° West 277 319 4,500 -1,860 Climbing Jacksonville Center
12:20PM 30.6600 -82.0064 156° South 272 313 2,500 -1,260 Descending Jacksonville Center
12:21PM 30.5908 -81.9683 155° Southeast 255 293 2,100 -540 Descending Jacksonville Center
12:21PM 30.5953 -81.9731 318° Northwest 267 307 2,000 -120 Descending Jacksonville Center
12:22PM 30.5447 -81.9206 138° Southeast 260 299 2,000 -60 Level Jacksonville Center
12:23PM 30.5147 -81.8389 113° Southeast 243 280 1,900 -360 Descending Jacksonville Center
12:24PM 30.4956 -81.7764 110° East 185 213 1,300 -600 Descending Jacksonville Center
12:25PM 30.4889 -81.7306 100° East 107 123 700 -600 Descending Jacksonville Center